TAF and METAR

METAR for El Alto International Airport

SLLP 181300Z 09004KT 9000 FEW005 BKN200 09/05 Q1039
Report created 18. apr 15:00
wind 4 knots from E (090°) visibility 9000 meters some clouds (~25% cover) at 500 feet broken clouds (~75% cover) at 20000 feet Temperature 9° with dewpoint at 5° (Humidity 76.02%) Pressure 1039 hPa

TAF for El Alto International Airport

TAF SLLP 181000Z 1812/1912 13005KT 9999 FEW017 TX16/1820Z TN03/1910Z TEMPO 1818/1821 33012KT 8000 VCTS FEW020CB BECMG 1904/1908 3000E VCFG FEW002
Report created 18. apr 12:00

between 18. apr 14:00 - 19. apr 14:00

wind 5 knots from SE (130°) visibility > 10km some clouds (~25% cover) at 1700 feet Max temperature 16° expected today at around 22 o'clock Min temperature 03° expected tomorrow at around 12 o'clock

temporarily between 18. apr 20:00 - 18. apr 23:00

wind 12 knots from NNW (330°) visibility 8000 meters thunderstorm and in the vicinity some clouds (~25% cover) at 2000 feet of type cumulonimbus

becoming between 19. apr 06:00 - 19. apr 10:00

visibility E 3000 meters fog in the vicinity some clouds (~25% cover) at 200 feet
El Alto International Airport in Bolivia at 4014m

Latest 5 airports